KABI/ABI METAR and TAF weather

Enter ICAO airport designator
Station Type Date Time Source
KABI METAR 2020/02/24 23:52 UTC NOAA

KABI 242352Z 27005KT 10SM CLR 19/01 A2979 RMK AO2 SLP077 T01940006 10206 20167 55005


Station Type Date Time Source
KABI Decoded METAR 2020/02/24 23:52 UTC NOAA

ABILENE REGIONAL AIRPORT, TX, United States (KABI) 32-25N 099-41W 548M
Feb 24, 2020 - 06:52 PM EST / 2020.02.24 2352 UTC
Wind: from the W (270 degrees) at 6 MPH (5 KT):0
Visibility: 10 mile(s):0
Sky conditions: clear
Temperature: 66.9 F (19.4 C)
Dew Point: 33.1 F (0.6 C)
Relative Humidity: 28%
Pressure (altimeter): 29.79 in. Hg (1008 hPa)
Pressure tendency: 0.01 inches (0.5 hPa) lower than three hours ago
ob: KABI 242352Z 27005KT 10SM CLR 19/01 A2979 RMK AO2 SLP077 T01940006 10206 20167 55005
cycle: 0

Station Type Date Time Source
KABI TAF 2020/02/24 18:22 UTC NOAA

TAF KABI 241720Z 2418/2518 31015KT P6SM SKC
FM242300 17005KT P6SM SKC
FM250600 03009KT P6SM SCT250
FM251200 36010KT P6SM BKN040

Example: see airport list